Sweet Briar, Virginia
Current Conditions -  °F | °C
As of 8:54 AM on Friday 31 Oct 2014 (Local Time) from KLYH Reporting Station
Clear Clear  
Wind Chill: 42°   Ceiling: Unl
Heat Index: 44°   Visibility: 10mi
Dew Point: 35°   Wind: 5mph
Humidity: 71%   Direction: 20°NNE
Pressure: 29.99"   Gusts: NA
Location:  37.55°N, 79.07°W
Report Text: KLYH 311254Z 02004KT 10SM CLR 07/02 A2999 RMK AO2 SLP157 T00670017
Loading
Personal Weather Stations






























Interactive Weather Map
Tropical Storm Tracking
New forecast layout! Learn more

10-Day Weather Forecast

Advertisements
Track Severe Weather on mobile